Time;durP1;ratioP1;P1;durP2;ratioP2;P2;SDS_P1;SDS_P2;PMS_P1;PMS_P2;Temp;Humidity;BMP_temperature;BMP_pressure;BME280_temperature;BME280_humidity;BME280_pressure;Samples;Min_cycle;Max_cycle;Signal;HPM_P1;HPM_P2
2022/05/12 00:00:30;;;;;;;21.20;3.40;;;;;;;;;;5009761;28;20029;-52
2022/05/12 00:02:57;;;;;;;16.17;3.70;;;;;;;;;;5010478;28;21420;-49
2022/05/12 00:05:25;;;;;;;17.83;3.25;;;;;;;;;;5009972;28;20056;-54
2022/05/12 00:07:52;;;;;;;14.93;3.50;;;;;;;;;;5010315;28;20034;-50
2022/05/12 00:10:21;;;;;;;22.85;3.40;;;;;;;;;;5010266;28;20443;-50
2022/05/12 00:12:48;;;;;;;10.18;3.28;;;;;;;;;;5011042;28;20034;-54
2022/05/12 00:15:18;;;;;;;17.08;4.10;;;;;;;;;;4994022;28;20038;-53
2022/05/12 00:17:46;;;;;;;12.95;4.18;;;;;;;;;;5011297;28;20057;-54
2022/05/12 00:20:14;;;;;;;13.73;4.40;;;;;;;;;;5011214;28;20022;-51
2022/05/12 00:22:41;;;;;;;22.58;6.72;;;;;;;;;;5011944;28;20514;-52
2022/05/12 00:25:21;;;;;;;120.68;27.27;;;;;;;;;;5011991;28;20045;-52
2022/05/12 00:27:48;;;;;;;297.05;78.10;;;;;;;;;;5011632;28;20022;-50
2022/05/12 00:30:15;;;;;;;344.02;91.35;;;;;;;;;;5011954;28;20022;-52
2022/05/12 00:32:43;;;;;;;379.90;105.85;;;;;;;;;;5011610;28;20041;-50
2022/05/12 00:35:12;;;;;;;422.30;115.25;;;;;;;;;;5011752;28;20074;-47
2022/05/12 00:37:39;;;;;;;464.60;127.13;;;;;;;;;;5011659;28;20659;-52
2022/05/12 00:40:07;;;;;;;493.90;134.90;;;;;;;;;;5011324;28;20022;-48
2022/05/12 00:42:34;;;;;;;500.80;139.25;;;;;;;;;;5011932;28;20026;-49
2022/05/12 00:45:01;;;;;;;483.50;135.55;;;;;;;;;;5012764;28;20034;-52
2022/05/12 00:47:28;;;;;;;511.08;140.65;;;;;;;;;;5012490;28;20045;-47
2022/05/12 00:49:55;;;;;;;490.67;140.45;;;;;;;;;;5011663;28;20388;-47
2022/05/12 00:52:26;;;;;;;495.70;141.70;;;;;;;;;;5011841;28;20034;-47
2022/05/12 00:54:56;;;;;;;484.35;140.00;;;;;;;;;;5011332;28;20029;-51
2022/05/12 00:57:43;;;;;;;495.35;141.48;;;;;;;;;;5011326;28;20080;-51
2022/05/12 01:00:12;;;;;;;463.63;135.77;;;;;;;;;;4994052;28;20108;-47
2022/05/12 01:02:39;;;;;;;456.38;132.30;;;;;;;;;;5011750;28;20038;-49
2022/05/12 01:05:07;;;;;;;443.50;130.27;;;;;;;;;;5010256;28;20030;-55
2022/05/12 01:07:35;;;;;;;427.58;130.13;;;;;;;;;;5010292;28;20030;-54
2022/05/12 01:10:03;;;;;;;409.58;125.03;;;;;;;;;;5010964;28;20101;-53
2022/05/12 01:12:31;;;;;;;424.67;127.07;;;;;;;;;;5010595;28;20422;-52
2022/05/12 01:14:58;;;;;;;400.38;124.18;;;;;;;;;;5010776;28;20057;-49
2022/05/12 01:17:25;;;;;;;394.63;120.97;;;;;;;;;;5011129;28;20056;-54
2022/05/12 01:19:53;;;;;;;378.80;116.60;;;;;;;;;;5010754;28;20018;-52
2022/05/12 01:22:43;;;;;;;386.25;117.07;;;;;;;;;;5009389;28;20613;-54
2022/05/12 01:25:12;;;;;;;372.83;112.25;;;;;;;;;;4973192;28;20057;-52
2022/05/12 01:27:42;;;;;;;357.20;113.25;;;;;;;;;;5007046;28;20038;-52
2022/05/12 01:30:11;;;;;;;364.63;108.03;;;;;;;;;;5008391;28;20128;-52
2022/05/12 01:32:38;;;;;;;342.30;105.90;;;;;;;;;;5010597;28;20061;-55
2022/05/12 01:35:06;;;;;;;339.33;105.53;;;;;;;;;;5010742;28;20392;-53
2022/05/12 01:37:33;;;;;;;326.88;100.35;;;;;;;;;;5009576;28;20439;-54
2022/05/12 01:40:00;;;;;;;315.10;99.63;;;;;;;;;;5009651;28;20061;-53
2022/05/12 01:42:28;;;;;;;319.40;99.35;;;;;;;;;;4991052;28;20038;-54
2022/05/12 01:44:55;;;;;;;315.17;95.90;;;;;;;;;;5009403;28;20048;-49
2022/05/12 01:47:22;;;;;;;288.48;91.57;;;;;;;;;;5009937;28;20026;-54
2022/05/12 01:49:50;;;;;;;299.27;94.10;;;;;;;;;;5009542;28;20430;-52
2022/05/12 01:52:17;;;;;;;290.77;91.47;;;;;;;;;;4993006;28;20400;-49
2022/05/12 01:54:44;;;;;;;272.95;86.22;;;;;;;;;;5009693;28;20167;-47
2022/05/12 01:57:12;;;;;;;259.90;85.63;;;;;;;;;;4991327;28;20085;-50
2022/05/12 01:59:39;;;;;;;263.83;85.88;;;;;;;;;;5009375;28;20033;-52
2022/05/12 02:02:06;;;;;;;250.07;81.93;;;;;;;;;;5009571;28;20065;-53
2022/05/12 02:04:33;;;;;;;242.30;80.00;;;;;;;;;;5008907;28;20484;-53
2022/05/12 02:07:00;;;;;;;252.88;81.43;;;;;;;;;;5011403;28;20026;-49
2022/05/12 02:09:28;;;;;;;233.57;77.88;;;;;;;;;;5012954;28;20040;-50
2022/05/12 02:11:55;;;;;;;238.35;76.93;;;;;;;;;;5012802;28;20022;-49
2022/05/12 02:14:22;;;;;;;203.13;71.40;;;;;;;;;;5012493;28;20104;-54
2022/05/12 02:16:50;;;;;;;218.70;71.57;;;;;;;;;;5012591;28;20026;-54
2022/05/12 02:19:17;;;;;;;204.63;67.57;;;;;;;;;;5012748;28;20503;-49
2022/05/12 02:21:44;;;;;;;215.25;68.47;;;;;;;;;;5012860;28;20353;-51
2022/05/12 02:24:11;;;;;;;193.30;64.95;;;;;;;;;;5012836;28;20080;-50
2022/05/12 02:26:39;;;;;;;195.05;64.85;;;;;;;;;;5012066;28;20029;-50
2022/05/12 02:29:06;;;;;;;175.65;61.95;;;;;;;;;;5012423;28;20033;-52
2022/05/12 02:31:33;;;;;;;181.90;62.97;;;;;;;;;;5011985;28;20042;-55
2022/05/12 02:34:01;;;;;;;176.90;59.63;;;;;;;;;;5013275;28;20029;-55
2022/05/12 02:36:29;;;;;;;167.93;58.67;;;;;;;;;;5013903;28;20033;-55
2022/05/12 02:38:57;;;;;;;170.10;56.05;;;;;;;;;;5008636;28;20033;-53
2022/05/12 02:41:25;;;;;;;161.80;55.25;;;;;;;;;;5013299;28;20038;-56
2022/05/12 02:43:52;;;;;;;159.15;55.08;;;;;;;;;;5013877;28;20052;-52
2022/05/12 02:46:20;;;;;;;152.27;54.70;;;;;;;;;;4996501;28;20041;-54
2022/05/12 02:48:50;;;;;;;152.98;53.10;;;;;;;;;;5014710;28;20049;-55
2022/05/12 02:51:17;;;;;;;156.45;52.17;;;;;;;;;;5014477;28;20029;-54
2022/05/12 02:53:45;;;;;;;141.18;50.30;;;;;;;;;;5014452;28;20034;-53
2022/05/12 02:56:13;;;;;;;142.88;49.58;;;;;;;;;;5014604;28;20022;-51
2022/05/12 02:58:40;;;;;;;137.05;50.00;;;;;;;;;;5014628;28;20054;-49
2022/05/12 03:01:08;;;;;;;133.43;46.78;;;;;;;;;;5014557;28;20108;-47
2022/05/12 03:03:35;;;;;;;130.50;46.63;;;;;;;;;;5014338;28;20030;-48
2022/05/12 03:06:02;;;;;;;126.85;46.10;;;;;;;;;;5014459;28;20034;-51
2022/05/12 03:08:29;;;;;;;124.50;45.15;;;;;;;;;;5014424;28;20022;-46
2022/05/12 03:10:56;;;;;;;120.82;42.05;;;;;;;;;;5014284;28;20797;-50
2022/05/12 03:13:23;;;;;;;121.18;44.38;;;;;;;;;;5014245;28;20041;-47
2022/05/12 03:15:51;;;;;;;115.65;42.03;;;;;;;;;;5014338;28;20026;-49
2022/05/12 03:18:18;;;;;;;112.13;39.55;;;;;;;;;;5013644;28;20113;-47
2022/05/12 03:20:45;;;;;;;110.65;42.35;;;;;;;;;;5014213;28;20018;-48
2022/05/12 03:23:13;;;;;;;104.75;37.58;;;;;;;;;;5014105;28;20045;-49
2022/05/12 03:25:43;;;;;;;113.32;38.22;;;;;;;;;;5014024;28;20046;-48
2022/05/12 03:28:10;;;;;;;106.72;37.83;;;;;;;;;;4996333;28;20041;-46
2022/05/12 03:30:37;;;;;;;106.32;38.92;;;;;;;;;;5014006;28;20049;-53
2022/05/12 03:33:05;;;;;;;99.75;36.13;;;;;;;;;;5013828;28;20050;-46
2022/05/12 03:35:33;;;;;;;102.30;35.47;;;;;;;;;;5014090;28;20496;-51
2022/05/12 03:38:00;;;;;;;95.82;34.90;;;;;;;;;;5013765;28;20518;-46
2022/05/12 03:40:30;;;;;;;95.28;35.03;;;;;;;;;;5013650;28;20054;-47
2022/05/12 03:42:58;;;;;;;94.38;34.42;;;;;;;;;;5013658;28;20034;-47
2022/05/12 03:45:29;;;;;;;90.63;31.85;;;;;;;;;;5013555;28;20045;-47
2022/05/12 03:47:58;;;;;;;90.30;32.53;;;;;;;;;;5013636;28;20018;-47
2022/05/12 03:50:26;;;;;;;86.68;32.58;;;;;;;;;;5013547;28;20116;-49
2022/05/12 03:52:54;;;;;;;77.65;30.05;;;;;;;;;;5013743;28;20030;-49
2022/05/12 03:55:23;;;;;;;82.93;30.40;;;;;;;;;;5013712;28;20025;-48
2022/05/12 03:57:52;;;;;;;85.78;30.25;;;;;;;;;;5013666;28;20507;-47
2022/05/12 04:00:21;;;;;;;76.57;31.85;;;;;;;;;;5013583;28;20113;-51
2022/05/12 04:02:48;;;;;;;78.15;30.23;;;;;;;;;;5013597;28;20026;-52
2022/05/12 04:05:15;;;;;;;75.47;28.42;;;;;;;;;;5013297;28;20488;-48
2022/05/12 04:07:44;;;;;;;76.72;28.98;;;;;;;;;;5013547;28;20026;-50
2022/05/12 04:10:12;;;;;;;74.22;28.08;;;;;;;;;;5013307;28;20484;-50
2022/05/12 04:12:39;;;;;;;72.88;26.05;;;;;;;;;;5013438;28;20066;-49
2022/05/12 04:15:06;;;;;;;71.72;28.25;;;;;;;;;;5013401;28;20029;-52
2022/05/12 04:17:33;;;;;;;70.53;27.10;;;;;;;;;;5013254;28;20022;-50
2022/05/12 04:20:04;;;;;;;68.10;27.30;;;;;;;;;;5013165;28;20056;-47
2022/05/12 04:22:31;;;;;;;68.65;26.50;;;;;;;;;;5013268;28;20022;-47
2022/05/12 04:24:58;;;;;;;62.33;23.70;;;;;;;;;;5013139;28;20037;-46
2022/05/12 04:27:25;;;;;;;63.35;25.48;;;;;;;;;;5013167;28;20026;-47
2022/05/12 04:29:52;;;;;;;63.00;24.25;;;;;;;;;;4994370;28;20032;-46
2022/05/12 04:32:19;;;;;;;68.63;25.98;;;;;;;;;;5012871;28;20428;-47
2022/05/12 04:37:32;;;;;;;55.33;23.73;;;;;;;;;;5013013;28;20511;-49
2022/05/12 04:40:11;;;;;;;59.38;22.55;;;;;;;;;;5012870;28;20044;-50
2022/05/12 04:42:38;;;;;;;54.65;24.02;;;;;;;;;;5012974;28;20036;-50
2022/05/12 04:45:06;;;;;;;50.70;21.15;;;;;;;;;;5012918;28;20038;-50
2022/05/12 04:47:36;;;;;;;51.70;20.38;;;;;;;;;;5012713;28;20480;-47
2022/05/12 04:50:04;;;;;;;52.15;21.05;;;;;;;;;;5012711;28;20406;-47
2022/05/12 04:52:31;;;;;;;52.05;21.50;;;;;;;;;;4995132;28;20466;-50
2022/05/12 04:54:58;;;;;;;52.50;20.88;;;;;;;;;;5012785;28;20443;-48
2022/05/12 04:57:25;;;;;;;50.80;19.98;;;;;;;;;;5012855;28;20022;-47
2022/05/12 04:59:55;;;;;;;50.97;20.52;;;;;;;;;;5012695;28;20492;-48
2022/05/12 05:02:23;;;;;;;51.70;20.70;;;;;;;;;;5012480;28;20044;-46
2022/05/12 05:04:50;;;;;;;48.97;18.88;;;;;;;;;;5012623;28;20117;-48
2022/05/12 05:07:17;;;;;;;47.60;18.77;;;;;;;;;;5012709;28;20026;-46
2022/05/12 05:09:44;;;;;;;46.05;18.42;;;;;;;;;;5012415;28;20503;-46
2022/05/12 05:12:11;;;;;;;44.03;19.08;;;;;;;;;;5012594;28;20029;-49
2022/05/12 05:14:38;;;;;;;40.15;17.75;;;;;;;;;;5012178;28;20026;-46
2022/05/12 05:17:05;;;;;;;45.83;18.27;;;;;;;;;;5012091;28;20031;-50
2022/05/12 05:19:32;;;;;;;40.13;17.13;;;;;;;;;;5012375;28;20388;-46
2022/05/12 05:21:59;;;;;;;47.20;17.45;;;;;;;;;;5012400;28;20111;-51
2022/05/12 05:24:26;;;;;;;43.00;18.27;;;;;;;;;;5012472;28;20128;-52
2022/05/12 05:26:53;;;;;;;42.38;17.27;;;;;;;;;;5012366;28;20091;-48
2022/05/12 05:29:20;;;;;;;37.92;16.60;;;;;;;;;;5012356;28;20547;-51
2022/05/12 05:31:47;;;;;;;34.15;15.63;;;;;;;;;;5012231;28;20518;-47
2022/05/12 05:34:14;;;;;;;35.65;15.30;;;;;;;;;;5012259;28;20109;-46
2022/05/12 05:36:44;;;;;;;42.17;17.13;;;;;;;;;;5012434;28;20054;-49
2022/05/12 05:39:24;;;;;;;39.08;15.73;;;;;;;;;;5012152;28;20082;-46
2022/05/12 05:41:52;;;;;;;34.75;15.52;;;;;;;;;;5013990;28;20105;-53
2022/05/12 05:44:19;;;;;;;33.70;14.02;;;;;;;;;;5016099;28;20515;-46
2022/05/12 05:46:47;;;;;;;32.55;14.48;;;;;;;;;;5016098;28;20053;-48
2022/05/12 05:49:14;;;;;;;32.20;13.95;;;;;;;;;;5015811;28;20037;-45
2022/05/12 05:54:31;;;;;;;34.47;14.20;;;;;;;;;;5015986;28;20072;-46
2022/05/12 05:57:03;;;;;;;29.73;13.80;;;;;;;;;;5015775;28;20069;-46
2022/05/12 05:59:29;;;;;;;32.63;14.18;;;;;;;;;;5015634;28;20492;-46
2022/05/12 06:01:57;;;;;;;29.25;13.13;;;;;;;;;;5015834;28;20037;-49
2022/05/12 06:04:25;;;;;;;33.45;14.50;;;;;;;;;;5015565;28;20045;-46
2022/05/12 06:06:52;;;;;;;29.27;13.68;;;;;;;;;;5015744;28;20026;-52
2022/05/12 06:09:19;;;;;;;29.42;13.05;;;;;;;;;;5015604;28;20087;-47
2022/05/12 06:11:48;;;;;;;27.80;13.40;;;;;;;;;;5015796;28;20042;-47
2022/05/12 06:14:15;;;;;;;29.02;12.13;;;;;;;;;;5015461;28;20057;-47
2022/05/12 06:16:42;;;;;;;29.38;12.90;;;;;;;;;;5015578;28;20079;-46
2022/05/12 06:19:09;;;;;;;23.80;10.75;;;;;;;;;;5015427;28;20036;-50
2022/05/12 06:21:36;;;;;;;28.13;12.38;;;;;;;;;;5015472;28;20083;-46
2022/05/12 06:24:04;;;;;;;31.50;12.30;;;;;;;;;;5015347;28;20022;-46
2022/05/12 06:26:30;;;;;;;25.85;11.82;;;;;;;;;;5015254;28;20040;-46
2022/05/12 06:28:58;;;;;;;24.20;10.80;;;;;;;;;;5015279;28;20503;-46
2022/05/12 06:31:29;;;;;;;26.65;11.48;;;;;;;;;;5015041;28;20428;-46
2022/05/12 06:33:57;;;;;;;26.13;10.63;;;;;;;;;;5015476;28;20400;-49
2022/05/12 06:36:24;;;;;;;22.73;11.07;;;;;;;;;;5015072;28;20397;-46
2022/05/12 06:38:51;;;;;;;20.77;10.23;;;;;;;;;;5015004;28;20552;-46
2022/05/12 06:41:18;;;;;;;20.52;8.85;;;;;;;;;;5015151;28;20488;-49
2022/05/12 06:43:45;;;;;;;24.52;10.65;;;;;;;;;;5014883;28;20029;-47
2022/05/12 06:46:16;;;;;;;20.13;10.05;;;;;;;;;;5015029;28;20030;-46
2022/05/12 06:48:44;;;;;;;22.05;9.52;;;;;;;;;;5014937;28;20076;-47
2022/05/12 06:51:11;;;;;;;22.52;10.02;;;;;;;;;;5009115;28;20125;-47
2022/05/12 06:53:39;;;;;;;20.45;9.23;;;;;;;;;;5004712;28;20033;-50
2022/05/12 06:56:07;;;;;;;19.80;8.73;;;;;;;;;;5011019;28;20026;-47
2022/05/12 06:58:58;;;;;;;19.58;9.85;;;;;;;;;;5011407;28;20098;-49
2022/05/12 07:01:27;;;;;;;22.73;9.38;;;;;;;;;;5007723;28;20041;-48
2022/05/12 07:03:57;;;;;;;22.15;9.55;;;;;;;;;;4994502;28;20031;-44
2022/05/12 07:06:24;;;;;;;20.80;9.13;;;;;;;;;;4995050;28;20038;-43
2022/05/12 07:12:08;;;;;;;18.05;8.05;;;;;;;;;;4995818;28;20535;-44
2022/05/12 07:17:53;;;;;;;22.40;8.63;;;;;;;;;;4995844;28;20061;-45
2022/05/12 07:26:35;;;;;;;17.42;7.78;;;;;;;;;;5156646;22;20065;-52
2022/05/12 07:29:04;;;;;;;19.15;8.02;;;;;;;;;;5014423;28;20116;-44
2022/05/12 07:31:31;;;;;;;19.73;7.68;;;;;;;;;;5013859;28;20249;-46
2022/05/12 07:33:58;;;;;;;16.67;7.60;;;;;;;;;;5013944;28;20140;-45
2022/05/12 07:36:28;;;;;;;15.32;6.80;;;;;;;;;;5013938;28;20026;-45
2022/05/12 07:38:56;;;;;;;16.75;7.90;;;;;;;;;;5013913;28;20045;-47
2022/05/12 07:41:23;;;;;;;15.43;7.25;;;;;;;;;;5014066;28;20523;-45
2022/05/12 07:43:54;;;;;;;16.20;7.28;;;;;;;;;;5013892;28;20510;-48
2022/05/12 07:46:25;;;;;;;14.52;6.93;;;;;;;;;;5013624;28;20030;-47
2022/05/12 07:48:52;;;;;;;15.13;6.53;;;;;;;;;;5013785;28;20018;-45
2022/05/12 07:51:20;;;;;;;13.57;6.80;;;;;;;;;;5013813;28;20018;-46
2022/05/12 07:53:48;;;;;;;13.63;6.78;;;;;;;;;;5013572;28;20376;-47
2022/05/12 07:56:21;;;;;;;13.63;6.57;;;;;;;;;;5013379;28;20037;-44
2022/05/12 07:58:48;;;;;;;14.60;6.38;;;;;;;;;;5013509;28;20030;-45
2022/05/12 08:01:17;;;;;;;13.38;6.55;;;;;;;;;;5013526;28;20046;-45
2022/05/12 08:03:44;;;;;;;15.35;7.45;;;;;;;;;;5013277;28;20116;-45
2022/05/12 08:06:12;;;;;;;17.25;7.22;;;;;;;;;;5013210;28;20038;-49
2022/05/12 08:08:39;;;;;;;16.75;6.50;;;;;;;;;;5013244;28;20484;-47
2022/05/12 08:11:06;;;;;;;12.10;6.13;;;;;;;;;;5013412;28;20022;-45
2022/05/12 08:13:33;;;;;;;13.35;6.10;;;;;;;;;;5013390;28;20022;-48
2022/05/12 08:16:01;;;;;;;14.65;6.60;;;;;;;;;;5013300;28;20022;-44
2022/05/12 08:18:28;;;;;;;11.63;5.80;;;;;;;;;;5013349;28;20106;-46
2022/05/12 08:20:55;;;;;;;12.20;5.75;;;;;;;;;;5013146;28;20030;-44
2022/05/12 08:23:22;;;;;;;14.20;6.20;;;;;;;;;;5013228;28;20097;-47
2022/05/12 08:25:50;;;;;;;12.48;5.72;;;;;;;;;;5012660;28;20096;-45
2022/05/12 08:28:18;;;;;;;12.98;6.32;;;;;;;;;;5013307;28;20471;-44
2022/05/12 08:30:46;;;;;;;14.02;5.72;;;;;;;;;;5011949;28;20036;-51
2022/05/12 08:33:13;;;;;;;11.88;5.50;;;;;;;;;;5013028;28;20022;-48
2022/05/12 08:35:42;;;;;;;13.95;5.90;;;;;;;;;;5012882;28;20034;-53
2022/05/12 08:38:09;;;;;;;12.35;5.70;;;;;;;;;;5012892;28;20387;-52
2022/05/12 08:40:42;;;;;;;10.70;5.57;;;;;;;;;;5013611;28;20026;-50
2022/05/12 08:43:08;;;;;;;;;;;;;;;;;;5014247;28;20105;-50
2022/05/12 08:45:35;;;;;;;13.10;5.90;;;;;;;;;;5013053;28;19913;-52
2022/05/12 08:48:02;;;;;;;11.57;5.65;;;;;;;;;;5012718;28;20045;-45
2022/05/12 08:50:32;;;;;;;13.38;5.55;;;;;;;;;;5012732;28;20391;-48
2022/05/12 08:53:08;;;;;;;14.07;5.50;;;;;;;;;;5012716;28;20104;-45
2022/05/12 08:55:40;;;;;;;10.20;5.18;;;;;;;;;;5012577;28;20423;-44
2022/05/12 08:58:16;;;;;;;11.00;6.13;;;;;;;;;;5012864;28;20435;-47
2022/05/12 09:00:49;;;;;;;8.80;5.05;;;;;;;;;;5012669;28;20056;-47
2022/05/12 09:03:23;;;;;;;10.90;5.57;;;;;;;;;;5012594;28;20491;-50
2022/05/12 09:06:04;;;;;;;14.45;5.53;;;;;;;;;;5012417;28;20072;-46
2022/05/12 09:08:44;;;;;;;9.93;4.72;;;;;;;;;;5012509;28;20044;-44
2022/05/12 09:11:23;;;;;;;10.98;4.63;;;;;;;;;;5012484;28;20112;-45
2022/05/12 09:13:51;;;;;;;8.90;4.88;;;;;;;;;;5012593;28;20026;-48
2022/05/12 09:16:21;;;;;;;9.18;4.82;;;;;;;;;;5012712;28;20069;-46
2022/05/12 09:18:48;;;;;;;9.35;4.25;;;;;;;;;;5016604;28;20029;-47
2022/05/12 09:21:17;;;;;;;10.45;5.03;;;;;;;;;;5016623;28;20018;-45
2022/05/12 09:23:46;;;;;;;9.85;5.13;;;;;;;;;;5016394;28;20026;-46
2022/05/12 09:26:31;;;;;;;8.30;4.22;;;;;;;;;;5016062;28;20046;-44
2022/05/12 09:29:12;;;;;;;9.70;4.38;;;;;;;;;;5017139;28;20476;-50
2022/05/12 09:31:40;;;;;;;9.93;4.88;;;;;;;;;;5016807;28;20018;-44
2022/05/12 09:34:25;;;;;;;9.55;4.78;;;;;;;;;;5016331;28;20409;-44
2022/05/12 09:36:52;;;;;;;8.05;4.20;;;;;;;;;;5016099;28;20627;-46
2022/05/12 09:39:36;;;;;;;9.75;4.57;;;;;;;;;;5016257;28;20018;-44
2022/05/12 09:42:03;;;;;;;11.05;5.18;;;;;;;;;;5016248;28;20017;-45
2022/05/12 09:44:31;;;;;;;9.35;4.18;;;;;;;;;;5016167;28;20034;-48
2022/05/12 09:47:07;;;;;;;7.45;3.97;;;;;;;;;;5016043;28;20101;-48
2022/05/12 09:49:39;;;;;;;7.18;3.65;;;;;;;;;;5015948;28;20121;-47
2022/05/12 09:52:24;;;;;;;8.07;4.30;;;;;;;;;;5016041;28;20094;-45
2022/05/12 09:55:09;;;;;;;9.60;4.28;;;;;;;;;;5015715;28;20577;-44
2022/05/12 09:57:36;;;;;;;9.73;4.05;;;;;;;;;;5015803;28;20152;-46
2022/05/12 10:00:07;;;;;;;8.45;4.20;;;;;;;;;;5015886;28;20053;-46
2022/05/12 10:08:24;;;;;;;8.10;3.92;;;;;;;;;;5015709;28;20499;-45
2022/05/12 10:11:05;;;;;;;8.75;4.05;;;;;;;;;;5002529;28;20136;-45
2022/05/12 10:13:36;;;;;;;8.20;3.60;;;;;;;;;;5015600;28;20026;-47
2022/05/12 10:16:03;;;;;;;7.93;3.40;;;;;;;;;;5015412;28;20030;-44
2022/05/12 10:18:47;;;;;;;7.05;3.60;;;;;;;;;;5015498;28;20022;-47
2022/05/12 10:21:33;;;;;;;6.70;3.33;;;;;;;;;;5015424;28;20041;-47
2022/05/12 10:24:11;;;;;;;8.05;3.42;;;;;;;;;;5015397;28;20391;-49
2022/05/12 10:26:58;;;;;;;7.13;3.42;;;;;;;;;;5015095;28;20069;-44
2022/05/12 10:29:34;;;;;;;13.18;3.92;;;;;;;;;;5015259;28;20026;-48
2022/05/12 10:32:07;;;;;;;7.55;3.60;;;;;;;;;;5015423;28;20030;-44
2022/05/12 10:34:43;;;;;;;8.43;3.45;;;;;;;;;;5015111;28;20543;-47
2022/05/12 10:37:22;;;;;;;6.47;3.58;;;;;;;;;;5015015;28;20104;-49
2022/05/12 10:39:52;;;;;;;8.18;3.45;;;;;;;;;;5015028;28;20025;-45
2022/05/12 10:42:19;;;;;;;8.52;3.65;;;;;;;;;;5015075;28;20510;-45
2022/05/12 10:44:55;;;;;;;10.77;4.00;;;;;;;;;;5015017;28;20025;-49
2022/05/12 10:47:31;;;;;;;7.35;3.22;;;;;;;;;;5014825;28;20024;-45
2022/05/12 10:50:10;;;;;;;7.40;3.00;;;;;;;;;;5014798;28;20026;-44
2022/05/12 10:52:43;;;;;;;8.27;3.47;;;;;;;;;;5014879;28;20030;-46
2022/05/12 10:55:18;;;;;;;7.47;3.75;;;;;;;;;;5014667;28;20096;-44
2022/05/12 10:57:45;;;;;;;5.45;3.10;;;;;;;;;;5014662;28;20022;-45
2022/05/12 11:00:27;;;;;;;7.35;3.35;;;;;;;;;;5014716;28;20033;-44
2022/05/12 11:03:01;;;;;;;6.82;3.05;;;;;;;;;;5007739;28;20025;-47
2022/05/12 11:05:28;;;;;;;19.15;3.10;;;;;;;;;;5013430;28;20037;-48
2022/05/12 11:08:15;;;;;;;11.90;2.95;;;;;;;;;;5013575;28;20025;-51
2022/05/12 11:10:48;;;;;;;11.30;2.83;;;;;;;;;;5013609;28;20499;-50
2022/05/12 11:13:24;;;;;;;7.22;3.00;;;;;;;;;;5012313;28;20096;-51
2022/05/12 11:15:56;;;;;;;8.93;2.58;;;;;;;;;;5013067;28;20036;-44
2022/05/12 11:18:35;;;;;;;8.05;2.70;;;;;;;;;;4995514;28;20037;-45
2022/05/12 11:21:13;;;;;;;9.95;2.80;;;;;;;;;;5013541;28;20033;-45
2022/05/12 11:23:46;;;;;;;10.68;2.90;;;;;;;;;;5013493;28;20109;-44
2022/05/12 11:26:19;;;;;;;9.52;3.00;;;;;;;;;;5012881;28;20065;-43
2022/05/12 11:31:47;;;;;;;11.20;3.33;;;;;;;;;;5013267;28;20041;-45
2022/05/12 11:34:20;;;;;;;15.60;3.05;;;;;;;;;;5012611;28;20506;-48
2022/05/12 11:36:49;;;;;;;8.68;2.60;;;;;;;;;;5012751;28;20383;-49
2022/05/12 11:39:32;;;;;;;14.88;2.75;;;;;;;;;;5012761;28;20411;-46
2022/05/12 11:42:11;;;;;;;9.60;2.85;;;;;;;;;;5012619;28;20038;-43
2022/05/12 11:44:45;;;;;;;13.90;2.97;;;;;;;;;;5013123;28;20022;-44
2022/05/12 11:47:15;;;;;;;12.48;2.90;;;;;;;;;;5010723;28;20034;-49
2022/05/12 11:49:45;;;;;;;14.55;2.63;;;;;;;;;;5012390;28;20034;-44
2022/05/12 11:52:14;;;;;;;10.15;2.55;;;;;;;;;;5011843;28;20038;-46
2022/05/12 11:54:49;;;;;;;9.38;2.80;;;;;;;;;;5013180;28;20038;-45
2022/05/12 11:57:45;;;;;;;7.75;2.88;;;;;;;;;;5011151;28;20029;-46
2022/05/12 12:00:14;;;;;;;8.60;2.60;;;;;;;;;;4989657;28;20483;-52
2022/05/12 12:02:44;;;;;;;7.93;2.65;;;;;;;;;;5002803;28;20026;-54
2022/05/12 12:05:31;;;;;;;14.00;3.65;;;;;;;;;;5009808;28;20046;-54
2022/05/12 12:08:00;;;;;;;9.10;2.70;;;;;;;;;;4942014;28;20038;-50
2022/05/12 12:10:26;;;;;;;8.30;2.42;;;;;;;;;;5001737;28;20513;-46
2022/05/12 12:12:53;;;;;;;6.05;2.58;;;;;;;;;;5031437;28;20026;-47
2022/05/12 12:15:28;;;;;;;7.50;2.60;;;;;;;;;;5031730;28;20037;-48
2022/05/12 12:17:55;;;;;;;8.45;2.50;;;;;;;;;;5031503;28;20033;-53
2022/05/12 12:20:31;;;;;;;8.75;2.85;;;;;;;;;;5030959;28;20043;-46
2022/05/12 12:23:18;;;;;;;6.13;2.58;;;;;;;;;;5016959;28;20026;-46
2022/05/12 12:25:47;;;;;;;5.28;2.25;;;;;;;;;;4997893;28;20101;-47
2022/05/12 12:28:17;;;;;;;6.38;2.20;;;;;;;;;;5004862;28;20113;-48
2022/05/12 12:30:56;;;;;;;8.73;2.58;;;;;;;;;;5012078;28;20128;-52
2022/05/12 12:33:26;;;;;;;6.53;2.47;;;;;;;;;;5021621;28;20030;-54
2022/05/12 12:36:02;;;;;;;8.13;2.25;;;;;;;;;;5031787;28;20468;-53
2022/05/12 12:38:47;;;;;;;12.32;3.33;;;;;;;;;;5031450;28;20025;-50
2022/05/12 12:41:22;;;;;;;10.15;2.78;;;;;;;;;;5030990;28;20022;-49
2022/05/12 12:44:14;;;;;;;10.15;2.75;;;;;;;;;;5031764;28;20030;-46
2022/05/12 12:46:41;;;;;;;;;;;;;;;;;;5020358;28;20049;-47
2022/05/12 12:49:10;;;;;;;8.95;2.72;;;;;;;;;;5031037;28;19968;-49
2022/05/12 12:51:39;;;;;;;7.13;2.42;;;;;;;;;;5029370;28;20103;-52
2022/05/12 12:57:14;;;;;;;10.32;3.10;;;;;;;;;;5030631;28;20044;-46
2022/05/12 12:59:46;;;;;;;9.75;2.47;;;;;;;;;;5030329;28;20026;-49
2022/05/12 13:02:42;;;;;;;9.32;3.30;;;;;;;;;;5029867;28;20025;-56
2022/05/12 13:05:18;;;;;;;9.15;2.42;;;;;;;;;;5010639;28;20045;-51
2022/05/12 13:07:53;;;;;;;11.88;2.72;;;;;;;;;;5031039;28;20033;-51
2022/05/12 13:10:20;;;;;;;9.27;2.70;;;;;;;;;;5029803;28;20025;-48
2022/05/12 13:13:01;;;;;;;10.23;2.70;;;;;;;;;;5030246;28;20025;-50
2022/05/12 13:15:32;;;;;;;6.18;2.60;;;;;;;;;;5030090;28;20034;-46
2022/05/12 13:18:00;;;;;;;9.10;2.45;;;;;;;;;;5029805;28;20108;-50
2022/05/12 13:20:32;;;;;;;10.70;2.38;;;;;;;;;;5030379;28;20037;-46
2022/05/12 13:23:07;;;;;;;12.95;3.03;;;;;;;;;;5029558;28;20037;-51
2022/05/12 13:25:37;;;;;;;22.50;3.35;;;;;;;;;;5022281;28;20041;-46
2022/05/12 13:28:06;;;;;;;18.80;2.65;;;;;;;;;;5010758;28;20079;-47
2022/05/12 13:30:41;;;;;;;12.48;3.20;;;;;;;;;;5010026;28;20546;-48
2022/05/12 13:33:13;;;;;;;12.38;2.72;;;;;;;;;;5009322;28;20108;-47
2022/05/12 13:35:41;;;;;;;9.57;3.00;;;;;;;;;;4991853;28;20123;-49
2022/05/12 13:38:10;;;;;;;9.85;2.50;;;;;;;;;;5010350;28;20060;-47
2022/05/12 13:40:55;;;;;;;11.43;2.60;;;;;;;;;;5010208;28;20033;-50
2022/05/12 13:43:38;;;;;;;10.65;3.15;;;;;;;;;;5009171;28;20069;-51
2022/05/12 13:46:22;;;;;;;8.95;2.97;;;;;;;;;;5010641;28;20105;-49
2022/05/12 13:48:53;;;;;;;17.38;2.78;;;;;;;;;;5009423;28;20033;-50
2022/05/12 13:51:38;;;;;;;21.30;2.97;;;;;;;;;;5010680;28;20034;-46
2022/05/12 13:54:08;;;;;;;17.73;2.85;;;;;;;;;;5009495;28;20443;-48
2022/05/12 13:56:36;;;;;;;14.90;2.50;;;;;;;;;;5010478;28;20037;-49
2022/05/12 13:59:20;;;;;;;9.82;2.42;;;;;;;;;;5011023;28;20368;-48
2022/05/12 14:01:47;;;;;;;16.88;2.97;;;;;;;;;;4993131;28;20037;-52
2022/05/12 14:04:27;;;;;;;9.00;2.60;;;;;;;;;;5009277;28;20550;-53
2022/05/12 14:06:59;;;;;;;11.85;2.58;;;;;;;;;;5003949;28;20060;-50
2022/05/12 14:09:30;;;;;;;11.00;3.20;;;;;;;;;;4985787;28;20117;-47
2022/05/12 14:11:59;;;;;;;9.23;2.60;;;;;;;;;;5002493;28;20030;-54
2022/05/12 14:20:06;;;;;;;23.58;4.32;;;;;;;;;;5013722;28;20454;-48
2022/05/12 14:22:33;;;;;;;22.33;3.78;;;;;;;;;;5014263;28;20034;-51
2022/05/12 14:24:59;;;;;;;22.08;3.25;;;;;;;;;;5013273;28;20037;-47
2022/05/12 14:27:26;;;;;;;19.42;3.40;;;;;;;;;;5012514;28;20049;-47
2022/05/12 14:29:53;;;;;;;19.13;4.00;;;;;;;;;;5014708;28;20034;-47
2022/05/12 14:32:20;;;;;;;22.48;3.25;;;;;;;;;;5033169;28;20025;-53
2022/05/12 14:34:48;;;;;;;20.70;4.05;;;;;;;;;;5033291;28;20032;-48
2022/05/12 14:37:16;;;;;;;18.50;3.20;;;;;;;;;;5032381;28;20427;-49
2022/05/12 14:39:44;;;;;;;18.63;3.35;;;;;;;;;;5032969;28;20595;-48
2022/05/12 14:42:11;;;;;;;21.90;3.90;;;;;;;;;;5033017;28;20083;-46
2022/05/12 14:44:37;;;;;;;23.58;3.10;;;;;;;;;;5033171;28;20052;-45
2022/05/12 14:47:06;;;;;;;17.10;3.65;;;;;;;;;;5031887;28;20090;-48
2022/05/12 14:49:38;;;;;;;19.70;3.50;;;;;;;;;;5033429;28;20025;-47
2022/05/12 14:52:08;;;;;;;23.65;3.63;;;;;;;;;;5015595;28;20029;-46
2022/05/12 14:54:35;;;;;;;24.95;4.30;;;;;;;;;;5033292;28;20518;-48
2022/05/12 14:57:02;;;;;;;16.80;3.30;;;;;;;;;;5000495;28;20042;-47
2022/05/12 14:59:29;;;;;;;15.23;3.63;;;;;;;;;;4992795;28;20036;-51
2022/05/12 15:01:56;;;;;;;17.67;3.58;;;;;;;;;;4976348;28;20034;-45
2022/05/12 15:04:25;;;;;;;21.52;3.70;;;;;;;;;;4991665;28;20034;-47
2022/05/12 15:06:52;;;;;;;28.08;3.53;;;;;;;;;;4992415;28;20030;-48
2022/05/12 15:09:19;;;;;;;18.50;3.47;;;;;;;;;;4994780;28;20033;-51
2022/05/12 15:11:46;;;;;;;29.27;3.58;;;;;;;;;;5001747;28;20038;-51
2022/05/12 15:14:13;;;;;;;17.17;3.50;;;;;;;;;;5010449;28;20077;-46
2022/05/12 15:16:40;;;;;;;18.48;3.20;;;;;;;;;;5012385;28;20084;-53